Bookmark and Share
Track history (hours):
 

Guide

More information available from US FCC via Universal Licensing System and Coast Guard Vessel Documentation Center.

Last reported at 2014-Apr-17 21:33 UTC. Time now 2014-Apr-17 21:48 UTC.
Position N 47°18' W 122°26'.

Length 34 m; draft 5.1 m.

Type: Tug. MMSI: 366759530.

NotesDate/timePositionNaut miles runAvg speedWind from/ knotsBaromVisibWave heightAir tempDewpointWater temp
2014-Apr-17 21:33N 47°18' W 122°26'2 1.7
2014-Apr-17 20:33N 47°16' W 122°25'1 1.2
2014-Apr-17 19:33N 47°17' W 122°26'2 1.9
2014-Apr-17 18:33N 47°15' W 122°26'0 0.1
2014-Apr-17 17:33N 47°15' W 122°26'1 1.0
2014-Apr-17 16:33N 47°16' W 122°25'1 1.1
2014-Apr-17 15:33N 47°15' W 122°26'0 0.0
2014-Apr-17 14:33N 47°15' W 122°26'0 0.0
2014-Apr-17 13:33N 47°15' W 122°26'0 0.0
2014-Apr-17 12:33N 47°15' W 122°26'0 0.0
2014-Apr-17 11:33N 47°15' W 122°26'0 0.0
2014-Apr-17 10:33N 47°15' W 122°26'0 0.0
2014-Apr-17 09:33N 47°15' W 122°26'0 0.0
2014-Apr-17 08:33N 47°15' W 122°26'0 0.0
2014-Apr-17 07:33N 47°15' W 122°26'0 0.0
2014-Apr-17 06:33N 47°15' W 122°26'0 0.0
2014-Apr-17 05:31N 47°15' W 122°26'0 0.0
2014-Apr-17 04:33N 47°15' W 122°26'0 0.0
2014-Apr-17 03:33N 47°15' W 122°26'0 0.0
2014-Apr-17 02:33N 47°15' W 122°26'2 1.8
2014-Apr-17 01:33N 47°16' W 122°23'0 0.4
2014-Apr-17 00:25N 47°16' W 122°23'1 0.6
2014-Apr-16 23:33N 47°16' W 122°24'1 0.6
2014-Apr-16 22:33N 47°16' W 122°23'1 0.6
2014-Apr-16 21:33N 47°16' W 122°24'2 2.3
2014-Apr-16 20:32N 47°18' W 122°26'0 0.0
2014-Apr-16 19:33N 47°18' W 122°26'0 0.0
2014-Apr-16 18:33N 47°18' W 122°26'0 0.0
2014-Apr-16 17:33N 47°18' W 122°26'0 0.0
2014-Apr-16 16:32N 47°18' W 122°26'1 0.7
2014-Apr-16 15:33N 47°17' W 122°25'1 1.2
2014-Apr-16 14:31N 47°17' W 122°23'1 1.0
2014-Apr-16 13:33N 47°16' W 122°23'1 1.1
2014-Apr-16 12:33N 47°16' W 122°24'2 1.7
2014-Apr-16 11:33N 47°18' W 122°26'0 0.0
2014-Apr-16 10:33N 47°18' W 122°26'2 2.3
2014-Apr-16 09:33N 47°16' W 122°24'0 0.3
2014-Apr-16 08:32N 47°16' W 122°24'1 1.3
2014-Apr-16 07:33N 47°15' W 122°23'1 0.4
2014-Apr-16 04:20N 47°16' W 122°24'1 1.3
2014-Apr-16 03:31N 47°15' W 122°23'2 1.7
2014-Apr-16 02:33N 47°16' W 122°25'0 0.2
2014-Apr-16 01:33N 47°16' W 122°25'1 1.3
2014-Apr-16 00:33N 47°17' W 122°26'2 1.9
2014-Apr-15 23:32N 47°16' W 122°24'1 0.6
2014-Apr-15 22:33N 47°16' W 122°23'0 0.1
2014-Apr-15 21:28N 47°16' W 122°23'0 0.3
2014-Apr-15 20:27N 47°16' W 122°23'2 2.4
2014-Apr-15 19:33N 47°15' W 122°26'0 0.0
2014-Apr-15 18:33N 47°15' W 122°26'0 0.0
2014-Apr-15 17:33N 47°15' W 122°26'0 0.0
2014-Apr-15 16:33N 47°15' W 122°26'0 0.0
2014-Apr-15 15:33N 47°15' W 122°26'0 0.0
2014-Apr-15 14:33N 47°15' W 122°26'0 0.0
2014-Apr-15 12:34N 47°15' W 122°26'0 0.0
2014-Apr-15 11:34N 47°15' W 122°26'1 1.0
2014-Apr-15 10:34N 47°16' W 122°26'2 2.4
2014-Apr-15 09:34N 47°16' W 122°23'3 2.9
2014-Apr-15 08:34N 47°18' W 122°26'2 1.9
2014-Apr-15 07:33N 47°16' W 122°24'0 0.0
2014-Apr-15 06:34N 47°16' W 122°24'0 0.0
2014-Apr-15 05:34N 47°16' W 122°24'0 0.2
2014-Apr-15 03:34N 47°16' W 122°24'0 0.0
2014-Apr-15 02:34N 47°16' W 122°24'0 0.0
2014-Apr-15 01:34N 47°16' W 122°24'1 0.8
2014-Apr-15 00:34N 47°17' W 122°24'0 0.2
2014-Apr-14 23:34N 47°17' W 122°25'2 1.6
2014-Apr-14 22:30N 47°15' W 122°23'2 1.6
2014-Apr-14 21:31N 47°16' W 122°25'1 1.6
2014-Apr-14 20:34N 47°18' W 122°26'2 2.3
2014-Apr-14 19:33N 47°15' W 122°26'0 0.0
2014-Apr-14 18:34N 47°15' W 122°26'0 0.0
2014-Apr-14 17:34N 47°15' W 122°26'0 0.0
2014-Apr-14 16:34N 47°15' W 122°26'0 0.0
2014-Apr-14 15:33N 47°15' W 122°26'0 0.0
2014-Apr-14 14:34N 47°15' W 122°26'1 1.3
2014-Apr-14 13:34N 47°17' W 122°26'1 0.4
2014-Apr-14 11:33N 47°16' W 122°24'1 1.4
2014-Apr-14 10:33N 47°18' W 122°26'0 0.0
2014-Apr-14 09:33N 47°18' W 122°26'0 0.0
2014-Apr-14 08:33N 47°18' W 122°26'3 2.7
2014-Apr-14 07:33N 47°16' W 122°23'3 2.8
2014-Apr-14 06:33N 47°17' W 122°26'713.4
2014-Apr-14 06:00N 47°25' W 122°23'511.8
2014-Apr-14 05:33N 47°20' W 122°27'10169.6
2014-Apr-14 05:30N 47°30' W 122°26'6 5.6
2014-Apr-14 04:25N 47°35' W 122°22'1 0.6
2014-Apr-14 03:30N 47°35' W 122°21'0 0.0
2014-Apr-14 02:18N 47°35' W 122°21'1 1.0
2014-Apr-14 01:28N 47°35' W 122°22'17 5.3
2014-Apr-13 22:13N 47°18' W 122°26'0 0.0
2014-Apr-13 20:29N 47°18' W 122°26'0 0.0
2014-Apr-13 19:32N 47°18' W 122°26'2 2.4
2014-Apr-13 18:33N 47°16' W 122°23'3 2.5
2014-Apr-13 17:32N 47°18' W 122°26'2 2.3
2014-Apr-13 16:33N 47°15' W 122°26'0 0.0
2014-Apr-13 15:33N 47°15' W 122°26'0 0.0
2014-Apr-13 14:08N 47°15' W 122°26'0 0.0
2014-Apr-13 13:33N 47°15' W 122°26'0 0.0
2014-Apr-13 12:33N 47°15' W 122°26'0 0.0
2014-Apr-13 11:33N 47°15' W 122°26'2 1.7
2014-Apr-13 10:33N 47°16' W 122°24'1 0.7
2014-Apr-13 09:33N 47°16' W 122°23'1 1.4
2014-Apr-13 08:33N 47°16' W 122°25'1 1.0
2014-Apr-13 07:33N 47°15' W 122°26'0 0.0
2014-Apr-13 06:33N 47°15' W 122°26'0 0.0
2014-Apr-13 05:33N 47°15' W 122°26'0 0.0
2014-Apr-13 04:33N 47°15' W 122°26'0 0.0
2014-Apr-13 03:33N 47°15' W 122°26'0 0.0
2014-Apr-13 02:33N 47°15' W 122°26'0 0.0
2014-Apr-13 01:33N 47°15' W 122°26'0 0.0
2014-Apr-13 00:13N 47°15' W 122°26'0 0.0
2014-Apr-12 23:26N 47°15' W 122°26'0 0.0
2014-Apr-12 22:33N 47°15' W 122°26'0 0.0
2014-Apr-12 21:33N 47°15' W 122°26'0 0.0
2014-Apr-12 20:32N 47°15' W 122°26'2 1.9
2014-Apr-12 19:28N 47°16' W 122°23'2 2.2
2014-Apr-12 18:33N 47°17' W 122°25'1 1.1
2014-Apr-12 17:32N 47°16' W 122°24'0 0.0
2014-Apr-12 16:33N 47°16' W 122°24'0 0.0
2014-Apr-12 15:23N 47°16' W 122°24'0 0.0
2014-Apr-12 14:10N 47°16' W 122°24'1 1.3
2014-Apr-12 13:33N 47°16' W 122°23'1 0.6
2014-Apr-12 12:33N 47°16' W 122°24'1 0.9
2014-Apr-12 11:33N 47°17' W 122°25'0 0.1
2014-Apr-12 10:33N 47°17' W 122°25'1 1.3
2014-Apr-12 09:33N 47°16' W 122°24'0 0.1
2014-Apr-12 03:29N 47°16' W 122°24'1 0.8
2014-Apr-12 02:33N 47°16' W 122°25'1 0.9
2014-Apr-12 01:27N 47°16' W 122°24'0 0.3
2014-Apr-12 00:33N 47°16' W 122°23'1 1.0
2014-Apr-11 23:33N 47°16' W 122°24'0 0.2
2014-Apr-11 22:33N 47°17' W 122°24'1 1.5
2014-Apr-11 21:33N 47°18' W 122°26'0 0.2
2014-Apr-11 20:33N 47°18' W 122°26'0 0.0
2014-Apr-11 19:33N 47°18' W 122°26'0 0.0
2014-Apr-11 18:33N 47°18' W 122°26'0 0.0
2014-Apr-11 17:33N 47°18' W 122°26'0 0.0
2014-Apr-11 16:30N 47°18' W 122°26'0 0.0
2014-Apr-11 15:32N 47°18' W 122°26'1 1.4
2014-Apr-11 14:33N 47°17' W 122°25'0 0.3
2014-Apr-11 13:33N 47°16' W 122°24'2 1.7
2014-Apr-11 12:33N 47°18' W 122°26'0 0.0
2014-Apr-11 11:28N 47°18' W 122°26'1 1.4
2014-Apr-11 10:29N 47°16' W 122°25'2 1.6
2014-Apr-11 09:33N 47°15' W 122°26'0 0.0
2014-Apr-11 08:33N 47°15' W 122°26'0 0.0
2014-Apr-11 07:33N 47°15' W 122°26'0 0.0
2014-Apr-11 06:33N 47°15' W 122°26'0 0.0
2014-Apr-11 05:33N 47°15' W 122°26'0 0.0
2014-Apr-11 04:33N 47°15' W 122°26'0 0.0
2014-Apr-11 03:33N 47°15' W 122°26'0 0.0
2014-Apr-11 02:33N 47°15' W 122°26'0 0.0
2014-Apr-11 01:33N 47°15' W 122°26'0 0.0
2014-Apr-11 00:33N 47°15' W 122°26'0 0.0
2014-Apr-10 23:33N 47°15' W 122°26'0 0.0
2014-Apr-10 22:33N 47°15' W 122°26'0 0.0
2014-Apr-10 21:21N 47°15' W 122°26'0 0.0
2014-Apr-10 20:24N 47°15' W 122°26'0 0.0
2014-Apr-10 19:33N 47°15' W 122°26'0 0.0
2014-Apr-10 18:08N 47°15' W 122°26'0 0.0
2014-Apr-10 17:33N 47°15' W 122°26'0 0.0
2014-Apr-10 16:33N 47°15' W 122°26'0 0.0
2014-Apr-10 15:33N 47°15' W 122°26'0 0.0
2014-Apr-10 14:33N 47°15' W 122°26'2 2.1
2014-Apr-10 13:33N 47°17' W 122°26'2 2.4
2014-Apr-10 12:33N 47°16' W 122°23'2 2.5
2014-Apr-10 11:33N 47°18' W 122°26'1 1.3
2014-Apr-10 10:33N 47°17' W 122°25'1 1.2
2014-Apr-10 09:33N 47°16' W 122°23'2 1.8
2014-Apr-10 08:33N 47°15' W 122°26'0 0.0
2014-Apr-10 07:33N 47°15' W 122°26'0 0.0
2014-Apr-10 06:33N 47°15' W 122°26'0 0.0
2014-Apr-10 05:33N 47°15' W 122°26'0 0.0
2014-Apr-10 04:33N 47°15' W 122°26'0 0.0
2014-Apr-10 03:33N 47°15' W 122°26'0 0.0
2014-Apr-10 02:33N 47°15' W 122°26'0 0.4
2014-Apr-10 01:33N 47°16' W 122°26'4 8.5
2014-Apr-10 01:03N 47°20' W 122°27'5 9.6
2014-Apr-10 00:33N 47°23' W 122°22'210.2
2014-Apr-10 00:19N 47°26' W 122°24'7 9.9
2014-Apr-09 23:34N 47°33' W 122°27'013.5
2014-Apr-09 23:33N 47°33' W 122°27'4 4.0
2014-Apr-09 22:34N 47°35' W 122°22'0 1.4
2014-Apr-09 22:33N 47°35' W 122°22'1 1.0
2014-Apr-09 21:34N 47°36' W 122°22'010.1
2014-Apr-09 21:33N 47°36' W 122°22'1 0.6
2014-Apr-09 20:34N 47°35' W 122°21'0 0.0
2014-Apr-09 20:33N 47°35' W 122°21'0 0.0
2014-Apr-09 19:33N 47°35' W 122°21'0 0.0
2014-Apr-09 19:33N 47°35' W 122°21'0 0.0
2014-Apr-09 18:33N 47°35' W 122°21'0 0.0
2014-Apr-09 18:13N 47°35' W 122°21'1 2.2
2014-Apr-09 17:33N 47°36' W 122°23'0 8.9
2014-Apr-09 17:33N 47°36' W 122°23'10 9.7
2014-Apr-09 16:33N 47°26' W 122°23'9 9.1
2014-Apr-09 15:33N 47°18' W 122°26'2 1.8
2014-Apr-09 14:33N 47°16' W 122°24'2 1.4
2014-Apr-09 13:28N 47°18' W 122°26'0 0.0
2014-Apr-09 12:31N 47°18' W 122°26'0 0.0
2014-Apr-09 11:33N 47°18' W 122°26'0 0.0
2014-Apr-09 10:30N 47°18' W 122°26'7 7.5
2014-Apr-09 09:33N 47°25' W 122°23'110.0
2014-Apr-09 09:25N 47°26' W 122°24'9 9.9
2014-Apr-09 08:33N 47°34' W 122°27'1 9.9
2014-Apr-09 08:30N 47°35' W 122°26'4 4.0
2014-Apr-09 07:33N 47°35' W 122°21'0 0.0
2014-Apr-09 07:30N 47°35' W 122°21'0 0.0
2014-Apr-09 06:33N 47°35' W 122°21'0 0.0
2014-Apr-09 06:30N 47°35' W 122°21'0 0.0
2014-Apr-09 05:50N 47°35' W 122°21'0 0.0
2014-Apr-09 05:33N 47°35' W 122°21'0 0.5
2014-Apr-09 04:33N 47°35' W 122°21'0 0.0
2014-Apr-09 04:30N 47°35' W 122°21'0 0.0
2014-Apr-09 03:33N 47°35' W 122°21'0 0.1
2014-Apr-09 03:30N 47°35' W 122°21'3 3.3
2014-Apr-09 02:33N 47°35' W 122°25'111.2
2014-Apr-09 02:30N 47°34' W 122°25'1112.0
2014-Apr-09 01:33N 47°23' W 122°21'110.9
2014-Apr-09 01:29N 47°23' W 122°21'7 7.0
2014-Apr-09 00:32N 47°16' W 122°24'1 0.6
2014-Apr-08 23:33N 47°16' W 122°25'2 1.7
2014-Apr-08 22:33N 47°15' W 122°23'3 3.1
2014-Apr-08 21:33N 47°18' W 122°26'0 0.2
2014-Apr-08 20:33N 47°18' W 122°26'0 0.0
2014-Apr-08 19:32N 47°18' W 122°26'1 1.2
2014-Apr-08 18:33N 47°17' W 122°25'1 0.9
2014-Apr-08 17:32N 47°16' W 122°24'2 1.9
2014-Apr-08 16:29N 47°18' W 122°26'0 0.0
2014-Apr-08 15:33N 47°18' W 122°26'0 0.0
2014-Apr-08 14:33N 47°18' W 122°26'2 1.7
2014-Apr-08 13:33N 47°16' W 122°24'0 0.3
2014-Apr-08 12:31N 47°16' W 122°24'0 0.4
2014-Apr-08 11:33N 47°16' W 122°24'1 1.0
2014-Apr-08 10:33N 47°17' W 122°26'2 1.7
2014-Apr-08 09:33N 47°15' W 122°26'0 0.0
2014-Apr-08 08:33N 47°15' W 122°26'0 0.0
2014-Apr-08 07:33N 47°15' W 122°26'0 0.0
2014-Apr-08 06:33N 47°15' W 122°26'0 0.0
2014-Apr-08 05:31N 47°15' W 122°26'0 0.0
2014-Apr-08 04:33N 47°15' W 122°26'0 0.0
2014-Apr-08 03:33N 47°15' W 122°26'0 0.0
2014-Apr-08 02:33N 47°15' W 122°26'0 0.0
2014-Apr-08 01:33N 47°15' W 122°26'0 0.0
2014-Apr-08 00:32N 47°15' W 122°26'0 0.0
2014-Apr-07 23:33N 47°15' W 122°26'1 0.7
2014-Apr-07 22:33N 47°16' W 122°26'  

Dump ship's entire track history

sailing weather and tide predictions

Guide — WDE7328 — position and weather